Time;durP1;ratioP1;P1;durP2;ratioP2;P2;SDS_P1;SDS_P2;PMS_P1;PMS_P2;Temp;Humidity;BMP_temperature;BMP_pressure;BME280_temperature;BME280_humidity;BME280_pressure;Samples;Min_cycle;Max_cycle;Signal;HPM_P1;HPM_P2
2023/02/17 00:01:00;;;;;;;1.90;1.58;;;20.10;69.80;;;;;;5072244;28;20191;-58
2023/02/17 00:03:27;;;;;;;1.70;1.60;;;20.10;69.80;;;;;;5075213;28;20551;-58
2023/02/17 00:05:53;;;;;;;2.00;1.80;;;20.10;69.80;;;;;;5080154;28;20196;-58
2023/02/17 00:08:21;;;;;;;1.92;1.83;;;20.10;69.90;;;;;;5068999;28;20187;-59
2023/02/17 00:10:56;;;;;;;1.83;1.73;;;20.10;69.90;;;;;;5068405;28;20226;-59
2023/02/17 00:13:23;;;;;;;1.92;1.83;;;20.10;69.90;;;;;;5081031;28;20213;-59
2023/02/17 00:15:49;;;;;;;1.90;1.77;;;20.10;69.90;;;;;;5080089;28;20233;-58
2023/02/17 00:18:16;;;;;;;2.33;1.77;;;20.10;69.90;;;;;;5075861;28;20215;-58
2023/02/17 00:20:43;;;;;;;2.03;1.80;;;20.10;69.90;;;;;;5073008;28;20674;-59
2023/02/17 00:23:09;;;;;;;1.92;1.70;;;20.10;70.00;;;;;;5089599;28;20225;-59
2023/02/17 00:25:39;;;;;;;1.98;1.88;;;20.10;70.00;;;;;;5078360;28;20199;-58
2023/02/17 00:28:06;;;;;;;1.98;1.58;;;20.10;70.00;;;;;;5074605;28;20647;-59
2023/02/17 00:30:33;;;;;;;1.50;1.40;;;20.10;70.00;;;;;;5083547;28;20225;-59
2023/02/17 00:33:02;;;;;;;2.00;1.90;;;20.00;69.90;;;;;;5081075;28;20190;-59
2023/02/17 00:35:29;;;;;;;1.60;1.50;;;20.00;69.90;;;;;;5084785;28;20202;-58
2023/02/17 00:37:55;;;;;;;1.60;1.50;;;20.00;69.90;;;;;;5079719;28;20205;-59
2023/02/17 00:40:22;;;;;;;1.58;1.40;;;20.00;69.90;;;;;;5068053;28;20301;-59
2023/02/17 00:42:50;;;;;;;1.90;1.80;;;20.00;69.90;;;;;;5070836;28;20202;-58
2023/02/17 00:45:17;;;;;;;2.33;1.83;;;20.00;69.90;;;;;;5077628;28;20609;-59
2023/02/17 00:47:44;;;;;;;1.33;1.23;;;20.00;69.90;;;;;;5069004;28;20206;-59
2023/02/17 00:50:11;;;;;;;1.60;1.48;;;20.00;69.90;;;;;;5071791;28;20233;-62
2023/02/17 00:52:38;;;;;;;1.70;1.50;;;20.00;70.00;;;;;;5088879;28;20673;-62
2023/02/17 00:55:05;;;;;;;2.47;2.28;;;20.10;70.30;;;;;;5075916;28;20199;-64
2023/02/17 00:57:32;;;;;;;2.30;2.10;;;20.00;70.40;;;;;;5085134;28;20198;-63
2023/02/17 01:00:00;;;;;;;2.00;1.80;;;20.00;70.70;;;;;;5086285;28;20232;-55
2023/02/17 01:02:26;;;;;;;1.90;1.80;;;20.00;71.00;;;;;;5079190;28;20198;-57
2023/02/17 01:04:53;;;;;;;2.30;2.10;;;20.10;71.10;;;;;;5088136;28;20197;-55
2023/02/17 01:07:20;;;;;;;4.15;2.10;;;20.10;71.20;;;;;;5077877;28;20187;-58
2023/02/17 01:09:47;;;;;;;2.25;2.05;;;20.10;71.30;;;;;;5077008;28;20666;-57
2023/02/17 01:12:13;;;;;;;1.90;1.80;;;20.00;71.20;;;;;;5077117;28;20202;-54
2023/02/17 01:14:40;;;;;;;3.40;1.90;;;20.00;71.20;;;;;;5084176;28;20194;-56
2023/02/17 01:17:08;;;;;;;2.33;2.08;;;20.00;71.10;;;;;;5087367;28;20202;-58
2023/02/17 01:19:35;;;;;;;2.05;1.88;;;20.00;71.10;;;;;;5081668;28;20209;-55
2023/02/17 01:22:02;;;;;;;2.35;1.95;;;20.00;71.10;;;;;;5080147;28;20221;-56
2023/02/17 01:24:28;;;;;;;1.65;1.55;;;20.10;71.10;;;;;;5072228;28;20203;-56
2023/02/17 01:26:55;;;;;;;4.07;2.10;;;20.10;71.10;;;;;;5072518;28;20195;-56
2023/02/17 01:29:22;;;;;;;2.38;1.90;;;20.10;71.10;;;;;;5078401;28;20202;-55
2023/02/17 01:31:48;;;;;;;2.30;2.10;;;20.10;71.10;;;;;;5079009;28;20202;-55
2023/02/17 01:34:17;;;;;;;2.25;2.05;;;20.10;71.00;;;;;;5077727;28;20194;-56
2023/02/17 01:36:43;;;;;;;3.05;2.05;;;20.10;71.00;;;;;;5077041;28;20569;-56
2023/02/17 01:39:12;;;;;;;2.78;2.03;;;20.10;71.00;;;;;;5072533;28;20195;-58
2023/02/17 01:41:39;;;;;;;4.35;1.60;;;20.10;71.00;;;;;;5077854;28;20649;-56
2023/02/17 01:44:13;;;;;;;4.10;2.60;;;20.10;70.90;;;;;;5076501;28;20205;-56
2023/02/17 01:46:41;;;;;;;2.15;1.88;;;20.10;70.90;;;;;;5080451;28;20672;-53
2023/02/17 01:49:22;;;;;;;2.13;2.00;;;20.10;70.90;;;;;;5076658;28;20187;-55
2023/02/17 01:51:53;;;;;;;2.60;2.05;;;20.10;70.90;;;;;;5083322;28;20222;-52
2023/02/17 01:54:26;;;;;;;2.10;2.00;;;20.10;70.90;;;;;;5089037;28;20231;-57
2023/02/17 01:56:55;;;;;;;2.25;2.00;;;20.10;70.80;;;;;;5092333;28;20252;-57
2023/02/17 01:59:22;;;;;;;1.65;1.55;;;20.10;70.70;;;;;;5093899;28;20197;-55
2023/02/17 02:01:54;;;;;;;1.65;1.55;;;20.10;70.70;;;;;;5077553;28;20207;-55
2023/02/17 02:04:25;;;;;;;1.80;1.70;;;20.10;70.70;;;;;;5099466;28;20216;-54
2023/02/17 02:06:52;;;;;;;1.70;1.60;;;20.10;70.70;;;;;;5072647;28;20206;-56
2023/02/17 02:09:22;;;;;;;2.58;1.90;;;20.10;70.60;;;;;;5080711;28;20191;-55
2023/02/17 02:11:49;;;;;;;4.13;1.65;;;20.00;70.50;;;;;;5082478;28;20218;-56
2023/02/17 02:14:18;;;;;;;2.28;2.08;;;20.00;70.50;;;;;;5101841;28;20190;-57
2023/02/17 02:16:50;;;;;;;1.85;1.73;;;20.00;70.50;;;;;;5090754;28;20198;-55
2023/02/17 02:19:54;;;;;;;2.20;2.00;;;20.00;70.40;;;;;;5094256;28;20198;-55
2023/02/17 02:23:02;;;;;;;3.03;2.20;;;20.00;70.50;;;;;;5077549;28;20229;-55
2023/02/17 02:25:49;;;;;;;2.63;1.98;;;20.00;70.40;;;;;;5035504;28;20626;-56
2023/02/17 02:28:26;;;;;;;2.03;1.80;;;20.00;70.40;;;;;;5075756;28;20190;-56
2023/02/17 02:31:09;;;;;;;1.92;1.83;;;20.00;70.40;;;;;;5076591;28;20709;-52
2023/02/17 02:33:43;;;;;;;2.25;1.83;;;20.00;70.40;;;;;;5080256;28;20210;-56
2023/02/17 02:36:13;;;;;;;1.50;1.40;;;20.00;70.40;;;;;;5080301;28;20213;-57
2023/02/17 02:38:44;;;;;;;2.70;2.10;;;20.00;70.30;;;;;;5084545;28;20200;-56
2023/02/17 02:41:14;;;;;;;2.85;2.05;;;20.00;70.30;;;;;;5082538;28;20210;-58
2023/02/17 02:43:42;;;;;;;1.95;1.75;;;20.00;70.20;;;;;;5079225;28;20199;-57
2023/02/17 02:46:09;;;;;;;1.58;1.48;;;20.00;70.20;;;;;;5076545;28;20555;-55
2023/02/17 02:48:38;;;;;;;2.45;2.08;;;20.00;70.10;;;;;;5079622;28;20293;-55
2023/02/17 02:51:16;;;;;;;1.77;1.67;;;20.00;70.10;;;;;;5080416;28;20222;-56
2023/02/17 02:54:18;;;;;;;4.18;1.75;;;19.90;70.00;;;;;;5096747;28;20570;-56
2023/02/17 02:57:13;;;;;;;1.60;1.50;;;19.90;70.00;;;;;;5073722;28;20553;-56
2023/02/17 02:59:51;;;;;;;2.20;1.98;;;19.90;69.90;;;;;;5083961;28;20202;-53
2023/02/17 03:02:24;;;;;;;1.80;1.70;;;19.90;69.90;;;;;;5080665;28;20566;-54
2023/02/17 03:04:59;;;;;;;1.65;1.55;;;19.90;69.90;;;;;;5083729;28;20202;-56
2023/02/17 03:07:31;;;;;;;2.42;2.22;;;19.90;69.90;;;;;;5079679;28;20209;-57
2023/02/17 03:10:00;;;;;;;1.95;1.58;;;19.90;69.80;;;;;;5077914;28;20202;-56
2023/02/17 03:12:28;;;;;;;1.67;1.58;;;19.90;69.80;;;;;;5079218;28;20681;-55
2023/02/17 03:14:58;;;;;;;1.73;1.45;;;19.90;69.80;;;;;;5081612;28;20209;-58
2023/02/17 03:17:25;;;;;;;2.00;1.50;;;19.90;69.80;;;;;;5082979;28;20661;-57
2023/02/17 03:19:53;;;;;;;2.38;2.17;;;19.90;69.80;;;;;;5074614;28;20241;-56
2023/02/17 03:22:23;;;;;;;1.60;1.40;;;19.90;69.80;;;;;;5072727;28;20223;-56
2023/02/17 03:24:50;;;;;;;1.65;1.55;;;19.90;69.80;;;;;;5077105;28;20210;-56
2023/02/17 03:27:17;;;;;;;1.80;1.70;;;19.90;69.80;;;;;;5070981;28;20198;-56
2023/02/17 03:29:43;;;;;;;2.00;1.90;;;19.90;69.80;;;;;;5079894;28;20198;-57
2023/02/17 03:32:10;;;;;;;1.92;1.83;;;19.90;69.70;;;;;;5080367;28;20218;-57
2023/02/17 03:34:37;;;;;;;1.73;1.63;;;19.90;69.80;;;;;;5078976;28;20205;-55
2023/02/17 03:37:05;;;;;;;1.70;1.60;;;19.90;69.70;;;;;;5079736;28;20194;-56
2023/02/17 03:39:32;;;;;;;1.65;1.55;;;19.90;69.60;;;;;;5072890;28;20198;-55
2023/02/17 03:41:58;;;;;;;1.67;1.58;;;19.90;69.70;;;;;;5079204;28;20199;-57
2023/02/17 03:44:25;;;;;;;2.10;1.90;;;19.90;69.60;;;;;;5075180;28;20195;-57
2023/02/17 03:46:52;;;;;;;2.25;2.05;;;19.90;69.60;;;;;;5074944;28;20194;-53
2023/02/17 03:49:18;;;;;;;1.80;1.70;;;19.90;69.60;;;;;;5077819;28;20700;-55
2023/02/17 03:51:45;;;;;;;1.70;1.60;;;19.90;69.50;;;;;;5075658;28;20218;-52
2023/02/17 03:54:13;;;;;;;2.28;2.08;;;19.80;69.50;;;;;;5082035;28;20191;-56
2023/02/17 03:56:40;;;;;;;2.80;1.80;;;19.80;69.40;;;;;;5080277;28;20570;-55
2023/02/17 03:59:07;;;;;;;1.50;1.40;;;19.80;69.40;;;;;;5087549;28;20196;-56
2023/02/17 04:01:34;;;;;;;2.13;1.40;;;19.80;69.40;;;;;;5093038;28;20198;-58
2023/02/17 04:04:00;;;;;;;2.53;2.00;;;19.80;69.30;;;;;;5088646;28;20292;-52
2023/02/17 04:06:27;;;;;;;1.73;1.63;;;19.80;69.40;;;;;;5088035;28;20199;-56
2023/02/17 04:08:54;;;;;;;2.15;2.05;;;19.80;69.30;;;;;;5086330;28;20685;-55
2023/02/17 04:11:22;;;;;;;2.05;1.95;;;19.80;69.30;;;;;;5087586;28;20228;-56
2023/02/17 04:13:48;;;;;;;1.67;1.50;;;19.80;69.30;;;;;;5084327;28;20201;-56
2023/02/17 04:16:15;;;;;;;1.90;1.60;;;19.80;69.30;;;;;;5088714;28;20564;-56
2023/02/17 04:18:42;;;;;;;2.58;1.70;;;19.80;69.30;;;;;;5078875;28;20205;-56
2023/02/17 04:21:09;;;;;;;1.63;1.52;;;19.80;69.30;;;;;;5076249;28;20203;-56
2023/02/17 04:23:37;;;;;;;1.92;1.83;;;19.80;70.10;;;;;;5071388;28;20233;-57
2023/02/17 04:26:04;;;;;;;2.13;2.03;;;19.80;69.30;;;;;;5073090;28;20664;-55
2023/02/17 04:28:32;;;;;;;1.80;1.67;;;19.80;69.20;;;;;;5087219;28;20209;-53
2023/02/17 04:30:59;;;;;;;1.73;1.63;;;19.70;69.10;;;;;;5074801;28;20218;-54
2023/02/17 04:33:26;;;;;;;2.85;1.50;;;19.70;69.00;;;;;;5077058;28;20202;-56
2023/02/17 04:35:58;;;;;;;2.20;1.70;;;19.70;69.00;;;;;;5078809;28;20199;-55
2023/02/17 04:38:25;;;;;;;1.80;1.70;;;19.70;69.00;;;;;;5075244;28;20198;-57
2023/02/17 04:40:53;;;;;;;1.63;1.52;;;19.70;68.90;;;;;;5074837;28;20194;-57
2023/02/17 04:43:20;;;;;;;1.52;1.42;;;19.70;69.00;;;;;;5078382;28;20611;-56
2023/02/17 04:45:51;;;;;;;1.67;1.50;;;19.70;69.00;;;;;;5078874;28;20194;-57
2023/02/17 04:48:19;;;;;;;1.73;1.63;;;19.70;69.00;;;;;;5077315;28;20194;-56
2023/02/17 04:50:45;;;;;;;1.90;1.80;;;19.70;69.00;;;;;;5077814;28;20224;-57
2023/02/17 04:53:13;;;;;;;2.22;1.70;;;19.70;68.90;;;;;;5077895;28;20194;-55
2023/02/17 04:55:39;;;;;;;2.58;2.00;;;19.70;68.90;;;;;;5081575;28;20621;-55
2023/02/17 04:58:07;;;;;;;1.60;1.40;;;19.70;68.90;;;;;;5081255;28;20201;-56
2023/02/17 05:00:34;;;;;;;1.90;1.70;;;19.70;68.90;;;;;;5096556;28;20205;-57
2023/02/17 05:03:02;;;;;;;1.45;1.35;;;19.70;68.90;;;;;;5083563;28;20199;-55
2023/02/17 05:05:28;;;;;;;2.13;2.03;;;19.70;68.90;;;;;;5082717;28;20198;-54
2023/02/17 05:07:55;;;;;;;1.90;1.50;;;19.70;68.90;;;;;;5084597;28;20199;-57
2023/02/17 05:10:22;;;;;;;1.80;1.70;;;19.70;68.90;;;;;;5081013;28;20662;-57
2023/02/17 05:12:49;;;;;;;1.65;1.55;;;19.70;68.90;;;;;;5082368;28;20214;-56
2023/02/17 05:15:15;;;;;;;2.13;1.95;;;19.70;68.80;;;;;;5079964;28;20603;-57
2023/02/17 05:17:42;;;;;;;1.60;1.50;;;19.70;68.80;;;;;;5074140;28;20194;-56
2023/02/17 05:20:11;;;;;;;1.60;1.50;;;19.70;68.80;;;;;;5080487;28;20573;-55
2023/02/17 05:22:38;;;;;;;1.70;1.60;;;19.70;68.80;;;;;;5084887;28;20222;-59
2023/02/17 05:25:06;;;;;;;1.45;1.35;;;19.70;68.80;;;;;;5080493;28;20206;-56
2023/02/17 05:27:32;;;;;;;1.30;1.20;;;19.60;68.70;;;;;;5083355;28;20202;-55
2023/02/17 05:29:59;;;;;;;1.75;1.65;;;19.60;68.60;;;;;;5080074;28;20191;-55
2023/02/17 05:32:26;;;;;;;2.10;1.90;;;19.60;68.60;;;;;;5079041;28;20231;-57
2023/02/17 05:34:53;;;;;;;1.45;1.35;;;19.60;68.60;;;;;;5082022;28;20604;-56
2023/02/17 05:37:21;;;;;;;1.40;1.30;;;19.60;68.60;;;;;;5074199;28;20193;-56
2023/02/17 05:39:48;;;;;;;1.70;1.60;;;19.60;68.60;;;;;;5073344;28;20245;-55
2023/02/17 05:42:14;;;;;;;2.35;2.15;;;19.60;68.60;;;;;;5072907;28;20563;-53
2023/02/17 05:44:41;;;;;;;1.63;1.52;;;19.60;68.60;;;;;;5078104;28;20198;-56
2023/02/17 05:47:08;;;;;;;1.83;1.60;;;19.60;68.60;;;;;;5084990;28;20210;-55
2023/02/17 05:49:34;;;;;;;1.80;1.70;;;19.60;68.60;;;;;;5077476;28;20199;-56
2023/02/17 05:52:02;;;;;;;1.92;1.83;;;19.60;68.60;;;;;;5079314;28;20729;-52
2023/02/17 05:54:30;;;;;;;1.55;1.45;;;19.60;68.60;;;;;;5076767;28;20213;-53
2023/02/17 05:56:57;;;;;;;1.58;1.48;;;19.60;68.60;;;;;;5073153;28;20213;-56
2023/02/17 05:59:24;;;;;;;1.70;1.58;;;19.60;68.50;;;;;;5074950;28;20649;-54
2023/02/17 06:01:51;;;;;;;1.70;1.60;;;19.60;68.60;;;;;;5074322;28;20202;-56
2023/02/17 06:04:17;;;;;;;1.75;1.55;;;19.60;68.50;;;;;;5080994;28;20202;-57
2023/02/17 06:06:44;;;;;;;2.00;1.90;;;19.60;68.50;;;;;;5074948;28;20594;-57
2023/02/17 06:09:11;;;;;;;1.48;1.33;;;19.60;68.50;;;;;;5073859;28;20194;-56
2023/02/17 06:11:39;;;;;;;2.15;1.95;;;19.60;68.50;;;;;;5080586;28;20227;-55
2023/02/17 06:14:05;;;;;;;1.70;1.60;;;19.60;68.50;;;;;;5070486;28;20564;-54
2023/02/17 06:16:32;;;;;;;1.60;1.50;;;19.50;68.40;;;;;;5079975;28;20206;-54
2023/02/17 06:19:01;;;;;;;1.45;1.35;;;19.60;68.40;;;;;;5071265;28;20669;-55
2023/02/17 06:21:27;;;;;;;1.90;1.80;;;19.60;68.40;;;;;;5082279;28;20221;-52
2023/02/17 06:23:54;;;;;;;1.65;1.55;;;19.60;68.40;;;;;;5079601;28;20494;-55
2023/02/17 06:26:21;;;;;;;1.65;1.55;;;19.60;68.40;;;;;;5076842;28;20206;-55
2023/02/17 06:28:49;;;;;;;2.75;1.58;;;19.60;68.40;;;;;;5079392;28;20203;-56
2023/02/17 06:31:16;;;;;;;1.65;1.55;;;19.60;68.40;;;;;;5083315;28;20213;-56
2023/02/17 06:33:42;;;;;;;1.63;1.52;;;19.60;68.40;;;;;;5079861;28;20195;-55
2023/02/17 06:36:09;;;;;;;1.70;1.60;;;19.60;68.40;;;;;;5086526;28;20251;-57
2023/02/17 06:38:36;;;;;;;1.65;1.52;;;19.60;68.40;;;;;;5084408;28;20197;-56
2023/02/17 06:41:03;;;;;;;1.33;1.23;;;19.60;68.40;;;;;;5082942;28;20211;-57
2023/02/17 06:43:30;;;;;;;1.50;1.40;;;19.60;68.40;;;;;;5086084;28;20198;-58
2023/02/17 06:45:58;;;;;;;1.33;1.23;;;19.60;68.40;;;;;;5077575;28;20193;-57
2023/02/17 06:48:25;;;;;;;1.55;1.45;;;19.70;68.50;;;;;;5076053;28;20693;-55
2023/02/17 06:50:51;;;;;;;1.40;1.30;;;19.60;68.40;;;;;;5081591;28;20194;-57
2023/02/17 06:53:18;;;;;;;1.50;1.40;;;19.60;68.40;;;;;;5080502;28;20217;-51
2023/02/17 06:55:45;;;;;;;2.05;1.85;;;19.60;68.40;;;;;;5076381;28;20206;-58
2023/02/17 06:58:12;;;;;;;1.35;1.25;;;19.70;68.50;;;;;;5085057;28;20190;-52
2023/02/17 07:00:38;;;;;;;1.52;1.42;;;19.60;68.40;;;;;;5082862;28;20199;-59
2023/02/17 07:03:06;;;;;;;1.38;1.27;;;19.60;68.30;;;;;;5093852;28;20198;-58
2023/02/17 07:05:35;;;;;;;2.17;1.20;;;19.60;68.30;;;;;;5093900;28;20288;-56
2023/02/17 07:08:03;;;;;;;1.35;1.25;;;19.60;68.30;;;;;;5079632;28;20224;-54
2023/02/17 07:10:29;;;;;;;2.00;1.75;;;19.60;68.30;;;;;;5091467;28;20657;-58
2023/02/17 07:12:56;;;;;;;1.60;1.50;;;19.70;68.40;;;;;;5085965;28;20693;-56
2023/02/17 07:15:23;;;;;;;2.08;1.48;;;19.70;68.40;;;;;;5083104;28;20195;-55
2023/02/17 07:17:50;;;;;;;7.38;2.00;;;19.70;68.40;;;;;;5075219;28;20191;-57
2023/02/17 07:20:18;;;;;;;1.30;1.20;;;19.70;68.50;;;;;;5079865;28;20559;-56
2023/02/17 07:22:45;;;;;;;1.70;1.38;;;19.70;68.50;;;;;;5077748;28;20266;-56
2023/02/17 07:25:11;;;;;;;1.38;1.27;;;19.70;68.50;;;;;;5078080;28;20646;-54
2023/02/17 07:27:38;;;;;;;1.50;1.40;;;19.70;68.60;;;;;;5091534;28;20649;-59
2023/02/17 07:30:06;;;;;;;2.20;1.20;;;19.70;68.60;;;;;;5071826;28;20199;-57
2023/02/17 07:32:34;;;;;;;1.65;1.55;;;19.70;68.60;;;;;;5076953;28;20233;-56
2023/02/17 07:35:01;;;;;;;2.28;1.20;;;19.70;68.60;;;;;;5078550;28;20222;-55
2023/02/17 07:37:29;;;;;;;1.63;1.50;;;19.70;68.70;;;;;;5074885;28;20203;-56
2023/02/17 07:39:56;;;;;;;1.65;1.55;;;19.70;68.70;;;;;;5073722;28;20198;-58
2023/02/17 07:42:24;;;;;;;1.30;1.20;;;19.70;68.80;;;;;;5077484;28;20685;-58
2023/02/17 07:44:50;;;;;;;1.52;1.42;;;19.70;68.90;;;;;;5079830;28;20566;-56
2023/02/17 07:47:17;;;;;;;1.77;1.58;;;19.70;68.90;;;;;;5079250;28;20202;-54
2023/02/17 07:49:44;;;;;;;1.30;1.20;;;19.80;69.00;;;;;;5078259;28;20187;-59
2023/02/17 07:52:11;;;;;;;1.55;1.45;;;19.80;69.20;;;;;;5078139;28;20218;-57
2023/02/17 07:54:39;;;;;;;1.27;1.17;;;19.80;69.20;;;;;;5072904;28;20194;-58
2023/02/17 07:57:05;;;;;;;1.20;1.10;;;19.80;69.20;;;;;;5074257;28;20191;-56
2023/02/17 07:59:32;;;;;;;2.50;1.42;;;19.80;69.30;;;;;;5079356;28;20198;-58
2023/02/17 08:01:59;;;;;;;2.67;1.40;;;19.80;69.40;;;;;;5077412;28;20666;-57
2023/02/17 08:04:25;;;;;;;1.23;1.13;;;19.80;69.40;;;;;;5077849;28;20220;-58
2023/02/17 08:06:52;;;;;;;1.67;1.20;;;19.80;69.40;;;;;;5072952;28;20566;-55
2023/02/17 08:14:49;;;;;;;1.50;1.38;;;19.80;69.50;;;;;;5076992;28;20339;-58
2023/02/17 08:17:16;;;;;;;1.13;1.02;;;19.90;69.60;;;;;;5080558;28;20186;-55
2023/02/17 08:19:43;;;;;;;1.30;1.10;;;19.90;69.60;;;;;;5077533;28;20577;-57
2023/02/17 08:22:10;;;;;;;1.45;1.35;;;19.90;69.60;;;;;;5079331;28;20716;-58
2023/02/17 08:24:36;;;;;;;1.48;1.38;;;19.90;69.80;;;;;;5075783;28;20187;-56
2023/02/17 08:27:05;;;;;;;2.25;1.20;;;19.90;69.80;;;;;;5079963;28;20201;-56
2023/02/17 08:29:31;;;;;;;1.40;1.30;;;19.90;69.80;;;;;;5076338;28;20289;-57
2023/02/17 08:31:58;;;;;;;1.45;1.35;;;19.90;69.80;;;;;;5077139;28;20230;-56
2023/02/17 08:34:25;;;;;;;1.52;1.02;;;19.90;69.70;;;;;;5081339;28;20217;-58
2023/02/17 08:36:51;;;;;;;1.50;1.25;;;19.90;69.70;;;;;;5082114;28;20690;-55
2023/02/17 08:39:18;;;;;;;1.50;1.40;;;20.00;70.00;;;;;;5080551;28;20206;-58
2023/02/17 08:41:46;;;;;;;1.60;1.50;;;20.00;69.90;;;;;;5077293;28;20190;-58
2023/02/17 08:44:16;;;;;;;1.30;1.20;;;20.00;70.00;;;;;;5079364;28;20229;-55
2023/02/17 08:46:46;;;;;;;1.50;1.40;;;20.00;70.10;;;;;;5077864;28;20198;-55
2023/02/17 08:49:12;;;;;;;1.48;1.38;;;20.00;70.30;;;;;;5079796;28;20194;-56
2023/02/17 08:51:39;;;;;;;1.30;1.20;;;20.00;70.30;;;;;;5075726;28;20293;-59
2023/02/17 08:54:09;;;;;;;3.28;1.35;;;20.00;70.30;;;;;;5079111;28;20203;-57
2023/02/17 08:56:37;;;;;;;1.23;1.13;;;20.00;70.40;;;;;;5073139;28;20286;-55
2023/02/17 08:59:04;;;;;;;1.50;1.10;;;20.00;70.40;;;;;;5075120;28;20751;-55
2023/02/17 09:01:32;;;;;;;1.75;1.30;;;20.00;70.50;;;;;;5079712;28;20689;-52
2023/02/17 09:04:00;;;;;;;3.95;1.20;;;20.10;70.60;;;;;;5074257;28;20231;-55
2023/02/17 09:06:33;;;;;;;1.13;1.02;;;20.10;70.50;;;;;;5076786;28;20249;-57
2023/02/17 09:08:59;;;;;;;2.08;1.58;;;20.10;70.60;;;;;;5080361;28;20219;-55
2023/02/17 09:11:26;;;;;;;1.45;1.35;;;20.10;70.60;;;;;;5078116;28;20229;-58
2023/02/17 09:13:52;;;;;;;1.50;1.40;;;20.10;70.60;;;;;;5081052;28;20582;-56
2023/02/17 09:16:20;;;;;;;1.30;1.20;;;20.10;70.60;;;;;;5079794;28;20195;-57
2023/02/17 09:18:48;;;;;;;1.50;1.40;;;20.10;70.70;;;;;;5077958;28;20201;-57
2023/02/17 09:21:16;;;;;;;1.67;1.58;;;20.10;70.80;;;;;;5081647;28;20193;-56
2023/02/17 09:23:43;;;;;;;1.63;1.23;;;20.00;70.70;;;;;;5076905;28;20205;-56
2023/02/17 09:26:13;;;;;;;2.00;1.45;;;20.00;70.80;;;;;;5073213;28;20190;-57
2023/02/17 09:28:40;;;;;;;1.40;1.23;;;20.10;71.00;;;;;;5085249;28;20205;-57
2023/02/17 09:31:11;;;;;;;9.02;1.50;;;20.10;71.10;;;;;;5088923;28;20202;-54
2023/02/17 09:33:38;;;;;;;15.25;1.75;;;20.10;71.50;;;;;;5077998;28;20229;-52
2023/02/17 09:36:07;;;;;;;6.00;1.30;;;20.10;71.40;;;;;;5087077;28;20187;-54
2023/02/17 09:38:34;;;;;;;3.13;1.70;;;20.10;71.50;;;;;;5088209;28;20608;-55
2023/02/17 09:41:09;;;;;;;1.73;1.63;;;20.10;71.50;;;;;;5083022;28;20430;-53
2023/02/17 09:43:37;;;;;;;1.20;1.10;;;20.10;71.60;;;;;;5094240;28;20197;-53
2023/02/17 09:46:11;;;;;;;1.52;1.42;;;20.10;71.70;;;;;;5082528;28;20714;-52
2023/02/17 09:48:39;;;;;;;1.25;1.15;;;20.10;71.70;;;;;;5080802;28;20197;-59
2023/02/17 09:51:14;;;;;;;8.93;1.98;;;20.00;71.60;;;;;;5086863;28;20206;-53
2023/02/17 09:53:44;;;;;;;1.67;1.15;;;20.00;71.70;;;;;;5079151;28;20300;-54
2023/02/17 09:56:16;;;;;;;1.60;1.50;;;20.00;71.60;;;;;;5082705;28;20195;-56
2023/02/17 09:58:48;;;;;;;1.50;1.40;;;20.00;71.60;;;;;;5084140;28;20202;-55
2023/02/17 10:01:20;;;;;;;1.73;1.40;;;20.10;71.70;;;;;;5087920;28;20600;-54
2023/02/17 10:03:51;;;;;;;1.70;1.60;;;20.10;71.70;;;;;;5080318;28;20602;-55
2023/02/17 10:06:24;;;;;;;2.03;1.40;;;20.00;71.60;;;;;;5085066;28;20198;-51
2023/02/17 10:08:54;;;;;;;1.38;1.27;;;20.10;71.70;;;;;;5080936;28;20195;-55
2023/02/17 10:11:27;;;;;;;2.13;1.33;;;20.00;71.60;;;;;;5077555;28;20293;-52
2023/02/17 10:13:57;;;;;;;1.55;1.30;;;20.10;71.70;;;;;;5080230;28;20582;-52
2023/02/17 10:16:30;;;;;;;1.92;1.35;;;20.10;71.70;;;;;;5080562;28;20202;-50
2023/02/17 10:19:01;;;;;;;1.58;1.45;;;20.10;71.70;;;;;;5081648;28;20198;-60
2023/02/17 10:21:35;;;;;;;4.75;1.70;;;20.10;71.60;;;;;;5090021;28;20225;-55
2023/02/17 10:24:01;;;;;;;1.40;1.30;;;20.10;71.70;;;;;;5080972;28;20214;-53
2023/02/17 10:26:47;;;;;;;1.50;1.40;;;20.00;71.50;;;;;;5086140;28;20197;-52
2023/02/17 10:29:19;;;;;;;1.20;1.10;;;20.10;71.60;;;;;;5081559;28;20190;-51
2023/02/17 10:31:48;;;;;;;1.30;1.15;;;20.10;71.60;;;;;;5075770;28;20206;-54
2023/02/17 10:34:26;;;;;;;1.60;1.42;;;20.10;71.60;;;;;;5083788;28;20221;-55
2023/02/17 10:36:59;;;;;;;1.42;1.33;;;20.10;71.50;;;;;;5082123;28;20280;-53
2023/02/17 10:39:46;;;;;;;1.48;1.38;;;20.10;71.50;;;;;;5083285;28;20198;-54
2023/02/17 10:42:18;;;;;;;1.40;1.30;;;20.10;71.40;;;;;;5079209;28;20194;-54
2023/02/17 10:44:45;;;;;;;2.20;1.58;;;20.10;71.40;;;;;;5082772;28;20197;-53
2023/02/17 10:47:13;;;;;;;1.40;1.20;;;20.10;71.30;;;;;;5087424;28;20205;-51
2023/02/17 10:49:44;;;;;;;1.50;1.35;;;20.10;71.30;;;;;;5079432;28;20191;-50
2023/02/17 10:52:16;;;;;;;2.00;1.30;;;20.10;71.30;;;;;;5089936;28;20193;-57
2023/02/17 10:54:48;;;;;;;1.50;1.30;;;20.10;71.30;;;;;;5073719;28;20233;-51
2023/02/17 10:57:17;;;;;;;1.50;1.35;;;20.10;71.40;;;;;;5086421;28;20689;-54
2023/02/17 10:59:45;;;;;;;1.60;1.42;;;20.10;71.40;;;;;;5081618;28;20210;-51
2023/02/17 11:02:22;;;;;;;3.88;1.98;;;20.10;71.40;;;;;;5079314;28;20190;-50
2023/02/17 11:04:50;;;;;;;1.65;1.55;;;20.10;71.60;;;;;;5084240;28;20198;-54
2023/02/17 11:07:23;;;;;;;4.00;1.40;;;20.10;71.70;;;;;;5085524;28;20688;-55
2023/02/17 11:09:53;;;;;;;11.95;1.90;;;20.10;71.80;;;;;;5084424;28;20194;-53
2023/02/17 11:12:22;;;;;;;13.88;1.95;;;20.10;71.80;;;;;;5082252;28;20194;-60
2023/02/17 11:14:51;;;;;;;17.92;2.28;;;20.10;72.00;;;;;;5084438;28;20222;-62
2023/02/17 11:17:23;;;;;;;10.82;2.42;;;20.10;72.10;;;;;;5086056;28;20195;-61
2023/02/17 11:20:01;;;;;;;4.65;1.60;;;20.10;72.30;;;;;;5079217;28;20666;-57
2023/02/17 11:22:37;;;;;;;2.45;1.58;;;20.10;72.30;;;;;;5080936;28;20236;-62
2023/02/17 11:25:07;;;;;;;3.28;1.80;;;20.10;72.50;;;;;;5082224;28;20213;-62
2023/02/17 11:27:33;;;;;;;4.15;1.65;;;20.10;72.60;;;;;;5083105;28;20202;-60
2023/02/17 11:30:09;;;;;;;2.28;1.45;;;20.20;72.80;;;;;;5081908;28;20235;-61
2023/02/17 11:32:36;;;;;;;2.53;1.83;;;20.20;72.90;;;;;;5079538;28;20193;-60
2023/02/17 11:35:05;;;;;;;2.13;1.50;;;20.20;72.80;;;;;;5071963;28;20209;-59
2023/02/17 11:37:37;;;;;;;2.55;1.63;;;20.30;72.90;;;;;;5086502;28;20681;-58
2023/02/17 11:40:24;;;;;;;3.37;1.60;;;20.30;72.80;;;;;;5082950;28;20685;-57
2023/02/17 11:42:56;;;;;;;1.55;1.33;;;20.30;72.90;;;;;;5087470;28;20456;-58
2023/02/17 11:45:23;;;;;;;7.45;1.25;;;20.30;72.90;;;;;;5079830;28;20277;-53
2023/02/17 11:48:04;;;;;;;2.27;1.40;;;20.40;73.00;;;;;;5081987;28;20578;-56
2023/02/17 11:50:35;;;;;;;1.52;1.15;;;20.40;73.00;;;;;;5080526;28;20491;-54
2023/02/17 11:53:20;;;;;;;1.95;1.55;;;20.40;73.10;;;;;;5084859;28;20220;-56
2023/02/17 11:56:00;;;;;;;1.88;1.75;;;20.40;73.10;;;;;;5086370;28;20197;-50
2023/02/17 11:58:40;;;;;;;1.43;1.20;;;20.40;73.20;;;;;;5088358;28;20194;-56
2023/02/17 12:01:21;;;;;;;2.97;1.40;;;20.50;73.40;;;;;;5085354;28;20456;-51
2023/02/17 12:04:14;;;;;;;1.50;1.40;;;20.50;73.40;;;;;;5083060;28;20459;-49
2023/02/17 12:06:51;;;;;;;4.68;1.80;;;20.50;73.50;;;;;;5086258;28;20514;-54
2023/02/17 12:09:27;;;;;;;2.00;1.30;;;20.50;73.50;;;;;;5076882;28;20463;-56
2023/02/17 12:12:00;;;;;;;1.30;1.20;;;20.50;73.60;;;;;;5085152;28;20461;-55
2023/02/17 12:14:52;;;;;;;1.47;1.37;;;20.50;73.60;;;;;;5081660;28;20480;-57
2023/02/17 12:17:26;;;;;;;2.17;1.10;;;20.60;73.70;;;;;;5079490;28;20459;-53
2023/02/17 12:20:02;;;;;;;1.73;1.47;;;20.50;73.70;;;;;;5086898;28;20202;-55
2023/02/17 12:22:36;;;;;;;1.40;1.20;;;20.60;73.90;;;;;;5080990;28;20479;-56
2023/02/17 12:25:18;;;;;;;1.98;1.60;;;20.60;74.60;;;;;;5076767;28;21450;-62
2023/02/17 12:27:56;;;;;;;1.37;1.27;;;20.60;73.90;;;;;;5072757;28;20202;-63
2023/02/17 12:30:33;;;;;;;1.47;1.30;;;20.60;74.10;;;;;;5076484;28;20952;-61
2023/02/17 12:33:17;;;;;;;1.40;1.23;;;20.60;74.00;;;;;;5077771;28;20465;-61
2023/02/17 12:35:51;;;;;;;1.92;1.30;;;20.60;74.00;;;;;;5083506;28;20194;-60
2023/02/17 12:38:22;;;;;;;1.90;1.37;;;20.60;74.10;;;;;;5078782;28;20292;-62
2023/02/17 12:40:55;;;;;;;1.60;1.30;;;20.60;74.20;;;;;;5083808;28;20842;-56
2023/02/17 12:43:26;;;;;;;1.90;1.60;;;20.60;74.10;;;;;;5083649;28;20447;-61
2023/02/17 12:45:57;;;;;;;1.30;1.20;;;20.60;74.10;;;;;;5079034;28;20457;-56
2023/02/17 12:48:31;;;;;;;1.20;1.10;;;20.60;74.10;;;;;;5078451;28;20992;-55
2023/02/17 12:51:05;;;;;;;1.30;1.10;;;20.60;74.10;;;;;;5083410;28;20456;-58
2023/02/17 12:53:42;;;;;;;1.50;1.30;;;20.70;74.30;;;;;;5088267;28;20978;-54
2023/02/17 12:56:32;;;;;;;2.92;1.00;;;20.70;74.30;;;;;;5081921;28;20455;-61
2023/02/17 12:59:10;;;;;;;1.43;1.33;;;20.70;74.30;;;;;;5084545;28;20593;-62
2023/02/17 13:01:41;;;;;;;1.43;1.33;;;20.70;74.30;;;;;;5084296;28;20479;-62
2023/02/17 13:04:10;;;;;;;1.50;1.20;;;20.70;74.30;;;;;;5073762;28;20459;-60